Tegucigalpa, Honduras
Current Conditions -  °F | °C
As of 6:00 PM on Saturday 25 Oct 2014 (Local Time) from MHTG Reporting Station
Broken Clouds Broken Clouds  
Wind Chill: 20°   Ceiling: 2400
Heat Index: 20°   Visibility: 5mi
Dew Point: 18°   Wind: 12mph
Humidity: 88%   Direction: 20°NNE
Pressure: 30.03"   Gusts: NA
Location:  14.09°N, 87.22°W
Report Text: MHTG 260000Z 02010KT 8000 FEW007 BKN024 BKN080 20/18 Q1017 A3003 NOSIG
Loading
Personal Weather Stations






























Interactive Weather Map
Tropical Storm Tracking
New forecast layout! Learn more

10-Day Weather Forecast

Advertisements
Track Severe Weather on mobile